Anthon, Iowa
Current Conditions -  °F | °C
As of 12:52 AM on Wednesday 22 Oct 2014 (Local Time) from KSUX Reporting Station
Clear Clear  
Wind Chill: 50°   Ceiling: Unl
Heat Index: 50°   Visibility: 10mi
Dew Point: 44°   Wind: 9mph
Humidity: 80%   Direction: 120°ESE
Pressure: 30.05"   Gusts: NA
Location:  42.39°N, 95.87°W
Report Text: KSUX 220552Z AUTO 12008KT 10SM CLR 10/07 A3005 RMK AO2 SLP175 T01000067 10194 20100 402500017 58002
Loading
Personal Weather Stations






























Interactive Weather Map
Tropical Storm Tracking
New forecast layout! Learn more

10-Day Weather Forecast

Advertisements
Track Severe Weather on mobile